createdAt,value
2023-07-03T00:05:52.141Z,72
2023-07-03T00:14:07.757Z,66.5
2023-07-03T00:30:38.967Z,71
2023-07-03T00:38:54.583Z,69.5
2023-07-03T00:47:10.296Z,72
2023-07-03T00:55:25.794Z,67
2023-07-03T01:03:41.417Z,68
2023-07-03T01:20:12.649Z,68
2023-07-03T01:28:28.282Z,70.5
2023-07-03T01:36:43.877Z,70
2023-07-03T01:44:59.497Z,67.5
2023-07-03T01:53:15.123Z,67
2023-07-03T02:01:30.708Z,70.5
2023-07-03T02:09:46.313Z,64
2023-07-03T02:18:01.908Z,66.5
2023-07-03T02:26:17.500Z,66.5
2023-07-03T02:34:33.101Z,68
2023-07-03T02:42:48.688Z,68.5
2023-07-03T02:51:04.364Z,71
2023-07-03T02:59:19.876Z,66
2023-07-03T03:07:35.443Z,69
2023-07-03T03:15:51.067Z,67.5
2023-07-03T03:24:06.660Z,69.5
2023-07-03T03:32:22.241Z,68
2023-07-03T03:40:37.886Z,68.5
2023-07-03T03:48:53.460Z,69.5
2023-07-03T03:57:09.081Z,71
2023-07-03T04:05:24.512Z,71
2023-07-03T04:13:40.157Z,70.5
2023-07-03T04:21:55.773Z,68.5
2023-07-03T04:30:11.280Z,69
2023-07-03T04:38:26.869Z,70
2023-07-03T04:54:56.025Z,70
2023-07-03T05:03:13.662Z,70
2023-07-03T05:11:29.316Z,73
2023-07-03T05:19:44.848Z,70
2023-07-03T05:28:00.558Z,69.5
2023-07-03T05:36:16.039Z,71.5
2023-07-03T05:44:31.657Z,69.5
2023-07-03T05:52:47.357Z,67.5
2023-07-03T06:01:02.881Z,68
2023-07-03T06:09:18.490Z,69.5
2023-07-03T06:17:34.130Z,69.5
2023-07-03T06:25:49.721Z,69.5
2023-07-03T06:34:05.402Z,68.5
2023-07-03T06:42:21.039Z,65
2023-07-03T06:50:36.679Z,65
2023-07-03T06:58:52.360Z,66
2023-07-03T07:07:07.888Z,63.5
2023-07-03T07:15:23.574Z,61
2023-07-03T07:23:39.286Z,59
2023-07-03T07:31:55.100Z,54.5
2023-07-03T07:40:10.919Z,56
2023-07-03T07:48:26.567Z,54.5
2023-07-03T08:04:58.087Z,52.5
2023-07-03T08:13:14.014Z,54.5
2023-07-03T08:21:29.784Z,53
2023-07-03T08:29:45.538Z,52
2023-07-03T08:38:01.401Z,50.5
2023-07-03T08:46:17.367Z,46.5
2023-07-03T08:54:33.247Z,47.5
2023-07-03T09:02:49.319Z,44
2023-07-03T09:11:05.449Z,45
2023-07-03T09:19:21.617Z,47
2023-07-03T09:27:38.104Z,42.5
2023-07-03T09:44:10.821Z,44.5
2023-07-03T09:52:27.343Z,43.5
2023-07-03T10:00:43.804Z,44.5
2023-07-03T10:09:00.392Z,46.5
2023-07-03T10:17:17.216Z,43
2023-07-03T10:25:33.676Z,49
2023-07-03T10:33:50.053Z,45
2023-07-03T10:50:22.075Z,46.5
2023-07-03T11:06:50.842Z,48
2023-07-03T11:15:09.851Z,51
2023-07-03T11:23:25.558Z,47.5
2023-07-03T11:31:41.547Z,48.5
2023-07-03T11:48:12.990Z,50
2023-07-03T12:21:13.111Z,48.5
2023-07-03T13:02:32.106Z,48
2023-07-03T13:10:50.809Z,49.5
2023-07-03T13:19:17.976Z,49.5
2023-07-03T13:27:22.448Z,51
2023-07-03T14:33:39.653Z,54
2023-07-03T14:41:44.038Z,53.5
2023-07-03T14:58:12.571Z,54.5
2023-07-03T15:06:31.236Z,51.5
2023-07-03T15:14:46.960Z,52
2023-07-03T15:31:18.444Z,53
2023-07-03T15:39:34.187Z,51.5
2023-07-03T15:56:02.636Z,51.5
2023-07-03T16:04:21.407Z,54.5
2023-07-03T16:12:37.135Z,53.5
2023-07-03T17:02:08.441Z,54
2023-07-03T17:10:27.176Z,56
2023-07-03T17:18:42.895Z,54.5
2023-07-03T17:26:58.598Z,57
2023-07-03T17:35:14.311Z,56.5
2023-07-03T17:51:42.710Z,55.5
2023-07-03T18:00:01.419Z,60
2023-07-03T18:08:17.134Z,58
2023-07-03T18:16:32.841Z,59
2023-07-03T18:24:48.523Z,59.5
2023-07-03T18:33:04.254Z,59.5
2023-07-03T18:41:19.953Z,60.5
2023-07-03T18:49:35.626Z,62
2023-07-03T18:57:51.330Z,63
2023-07-03T19:06:07.062Z,65.5
2023-07-03T19:14:22.737Z,65
2023-07-03T19:22:38.334Z,65
2023-07-03T19:30:53.972Z,87
2023-07-03T19:39:09.641Z,88.5
2023-07-03T19:47:25.295Z,85.5
2023-07-03T19:55:40.947Z,84
2023-07-03T20:03:56.656Z,84
2023-07-03T20:12:12.278Z,80
2023-07-03T20:20:27.932Z,72
2023-07-03T20:28:43.578Z,69
2023-07-03T20:36:59.220Z,69
2023-07-03T20:45:14.875Z,69
2023-07-03T20:53:30.512Z,73.5
2023-07-03T21:01:46.175Z,73
2023-07-03T21:10:01.924Z,72.5
2023-07-03T21:18:17.480Z,74
2023-07-03T21:26:33.143Z,75
2023-07-03T21:34:48.757Z,73
2023-07-03T21:43:04.406Z,74
2023-07-03T21:51:20.060Z,72.5
2023-07-03T21:59:35.712Z,74
2023-07-03T22:07:51.323Z,72
2023-07-03T22:16:06.946Z,72
2023-07-03T22:24:22.588Z,74
2023-07-03T22:32:38.225Z,74.5
2023-07-03T22:40:53.884Z,77
2023-07-03T22:49:09.518Z,77.5
2023-07-03T22:57:25.156Z,78
2023-07-03T23:05:40.828Z,78
2023-07-03T23:13:56.437Z,77
2023-07-03T23:22:12.193Z,76
2023-07-03T23:30:27.673Z,79
2023-07-03T23:38:43.398Z,76
2023-07-03T23:55:11.556Z,76.5
